createdAt,value
2023-09-19T00:00:49.634Z,14.80
2023-09-19T00:01:55.791Z,13.07
2023-09-19T00:03:01.817Z,13.48
2023-09-19T00:04:14.591Z,12.10
2023-09-19T00:05:19.731Z,12.05
2023-09-19T00:06:28.343Z,11.88
2023-09-19T00:07:33.174Z,11.02
2023-09-19T00:08:39.257Z,11.13
2023-09-19T00:09:47.521Z,10.00
2023-09-19T00:10:53.497Z,11.07
2023-09-19T00:11:58.441Z,10.40
2023-09-19T00:13:09.381Z,9.85
2023-09-19T00:14:16.140Z,10.23
2023-09-19T00:15:22.593Z,8.60
2023-09-19T00:16:27.781Z,8.57
2023-09-19T00:17:34.085Z,7.55
2023-09-19T00:18:39.008Z,7.70
2023-09-19T00:19:46.165Z,7.10
2023-09-19T00:20:54.916Z,10.30
2023-09-19T00:22:00.987Z,6.95
2023-09-19T00:23:06.843Z,6.05
2023-09-19T00:24:14.147Z,7.57
2023-09-19T00:25:19.571Z,7.65
2023-09-19T00:26:26.501Z,8.73
2023-09-19T00:27:31.895Z,7.90
2023-09-19T00:28:39.530Z,8.43
2023-09-19T00:29:44.397Z,8.48
2023-09-19T00:30:53.383Z,9.70
2023-09-19T00:31:58.986Z,10.13
2023-09-19T00:33:08.194Z,10.82
2023-09-19T00:34:12.949Z,7.80
2023-09-19T00:35:19.311Z,10.50
2023-09-19T00:36:24.077Z,8.05
2023-09-19T00:37:30.158Z,8.40
2023-09-19T00:38:34.948Z,9.57
2023-09-19T00:39:40.919Z,8.80
2023-09-19T00:40:47.657Z,7.15
2023-09-19T00:41:53.626Z,7.40
2023-09-19T00:43:02.520Z,6.87
2023-09-19T00:44:12.459Z,5.97
2023-09-19T00:45:18.361Z,7.22
2023-09-19T00:46:24.798Z,5.18
2023-09-19T00:47:33.287Z,6.82
2023-09-19T00:48:46.126Z,6.20
2023-09-19T00:49:54.730Z,5.03
2023-09-19T00:51:02.316Z,6.18
2023-09-19T00:52:08.037Z,6.22
2023-09-19T00:53:15.243Z,5.13
2023-09-19T00:54:20.274Z,7.83
2023-09-19T00:55:26.782Z,6.07
2023-09-19T00:56:31.745Z,5.30
2023-09-19T00:57:38.655Z,7.63
2023-09-19T00:58:43.455Z,6.00
2023-09-19T00:59:55.237Z,5.85
2023-09-19T01:00:59.912Z,6.88
2023-09-19T01:02:06.738Z,5.50
2023-09-19T01:03:11.936Z,6.82
2023-09-19T01:04:19.710Z,6.13
2023-09-19T01:05:26.015Z,7.33
2023-09-19T01:06:31.969Z,7.78
2023-09-19T01:07:36.708Z,9.52
2023-09-19T01:08:42.829Z,6.13
2023-09-19T01:09:47.529Z,7.32
2023-09-19T01:11:02.599Z,5.55
2023-09-19T01:12:11.027Z,6.78
2023-09-19T01:13:26.947Z,8.00
2023-09-19T01:14:39.838Z,7.53
2023-09-19T01:15:55.712Z,5.95
2023-09-19T01:17:06.681Z,7.83
2023-09-19T01:18:20.957Z,5.47
2023-09-19T01:19:56.071Z,7.47
2023-09-19T01:21:08.396Z,5.43
2023-09-19T01:22:20.400Z,6.03
2023-09-19T01:23:30.449Z,5.22
2023-09-19T01:25:19.286Z,6.80
2023-09-19T01:26:34.831Z,5.32
2023-09-19T01:28:18.082Z,6.38
2023-09-19T01:29:38.306Z,5.63
2023-09-19T01:30:48.544Z,6.97
2023-09-19T01:31:57.126Z,7.32
2023-09-19T01:33:02.338Z,6.50
2023-09-19T01:34:09.875Z,5.43
2023-09-19T01:35:15.393Z,6.50
2023-09-19T01:36:20.099Z,5.28
2023-09-19T01:37:27.906Z,6.82
2023-09-19T01:38:34.766Z,5.82
2023-09-19T01:39:41.211Z,5.40
2023-09-19T01:40:46.865Z,5.10
2023-09-19T01:42:02.464Z,8.13
2023-09-19T01:43:11.985Z,7.13
2023-09-19T01:44:25.918Z,10.00
2023-09-19T01:45:38.861Z,5.28
2023-09-19T01:46:47.472Z,5.55
2023-09-19T01:48:00.009Z,7.28
2023-09-19T01:49:11.805Z,4.95
2023-09-19T01:50:23.251Z,5.85
2023-09-19T01:51:36.228Z,5.50
2023-09-19T01:52:45.918Z,8.02
2023-09-19T01:53:58.807Z,6.13
2023-09-19T01:55:09.470Z,6.93
2023-09-19T01:56:20.847Z,5.57
2023-09-19T01:57:30.803Z,5.88
2023-09-19T01:58:40.272Z,4.85
2023-09-19T01:59:51.444Z,5.63
2023-09-19T02:00:57.339Z,5.25
2023-09-19T02:02:06.031Z,6.15
2023-09-19T02:03:12.515Z,8.63
2023-09-19T02:04:18.679Z,6.32
2023-09-19T02:05:26.955Z,6.03
2023-09-19T02:06:33.187Z,5.63
2023-09-19T02:07:38.119Z,6.63
2023-09-19T02:08:44.158Z,6.03
2023-09-19T02:09:50.077Z,7.20
2023-09-19T02:10:56.208Z,5.82
2023-09-19T02:12:01.153Z,6.93
2023-09-19T02:13:08.158Z,7.65
2023-09-19T02:14:12.869Z,5.47
2023-09-19T02:15:19.621Z,6.53
2023-09-19T02:16:24.440Z,5.50
2023-09-19T02:17:33.281Z,5.93
2023-09-19T02:18:38.174Z,7.80
2023-09-19T02:19:44.549Z,5.25
2023-09-19T02:20:49.996Z,9.52
2023-09-19T02:21:55.991Z,5.55
2023-09-19T02:23:00.976Z,6.68
2023-09-19T02:24:07.787Z,7.03
2023-09-19T02:25:13.442Z,5.40
2023-09-19T02:26:22.649Z,6.20
2023-09-19T02:27:27.381Z,4.60
2023-09-19T02:28:34.090Z,5.65
2023-09-19T02:29:38.913Z,6.18
2023-09-19T02:30:45.195Z,9.40
2023-09-19T02:31:49.989Z,6.45
2023-09-19T02:32:57.803Z,5.93
2023-09-19T02:34:02.493Z,5.63
2023-09-19T02:35:14.936Z,4.43
2023-09-19T02:36:19.724Z,6.38
2023-09-19T02:37:26.812Z,5.43
2023-09-19T02:38:31.786Z,5.37
2023-09-19T02:39:37.772Z,5.55
2023-09-19T02:40:42.613Z,6.57
2023-09-19T02:41:48.943Z,5.50
2023-09-19T02:42:57.196Z,6.75
2023-09-19T02:44:03.647Z,7.05
2023-09-19T02:45:09.457Z,5.90
2023-09-19T02:46:15.691Z,5.57
2023-09-19T02:47:23.238Z,6.90
2023-09-19T02:48:31.583Z,9.48
2023-09-19T02:49:36.973Z,6.10
2023-09-19T02:50:43.394Z,5.78
2023-09-19T02:51:49.617Z,7.10
2023-09-19T02:52:55.686Z,7.22
2023-09-19T02:54:00.404Z,6.50
2023-09-19T02:55:08.089Z,5.82
2023-09-19T02:56:17.569Z,5.25
2023-09-19T02:57:23.606Z,5.78
2023-09-19T02:58:29.892Z,6.15
2023-09-19T02:59:40.142Z,6.20
2023-09-19T03:00:49.314Z,6.70
2023-09-19T03:01:56.662Z,5.68
2023-09-19T03:03:01.794Z,5.25
2023-09-19T03:04:11.954Z,7.10
2023-09-19T03:05:17.360Z,15.25
2023-09-19T03:06:23.693Z,8.82
2023-09-19T03:07:28.416Z,6.05
2023-09-19T03:08:40.487Z,7.43
2023-09-19T03:09:45.403Z,5.47
2023-09-19T03:10:51.691Z,4.72
2023-09-19T03:11:56.702Z,5.43
2023-09-19T03:13:03.922Z,5.13
2023-09-19T03:14:08.726Z,5.38
2023-09-19T03:15:14.872Z,5.13
2023-09-19T03:16:24.371Z,7.63
2023-09-19T03:17:30.471Z,6.68
2023-09-19T03:18:36.304Z,5.22
2023-09-19T03:19:43.968Z,5.53
2023-09-19T03:20:56.965Z,5.00
2023-09-19T03:22:03.057Z,5.95
2023-09-19T03:23:08.287Z,6.80
2023-09-19T03:24:14.914Z,5.65
2023-09-19T03:25:19.859Z,4.93
2023-09-19T03:26:24.574Z,7.05
2023-09-19T03:27:30.788Z,6.95
2023-09-19T03:28:37.285Z,4.95
2023-09-19T03:29:43.660Z,5.43
2023-09-19T03:30:48.477Z,5.95
2023-09-19T03:31:55.229Z,5.43
2023-09-19T03:33:00.034Z,6.55
2023-09-19T03:34:06.333Z,7.20
2023-09-19T03:35:16.008Z,6.97
2023-09-19T03:36:21.948Z,4.88
2023-09-19T03:37:26.679Z,4.80
2023-09-19T03:38:32.865Z,5.85
2023-09-19T03:39:37.604Z,6.60
2023-09-19T03:40:43.912Z,5.20
2023-09-19T03:41:48.651Z,5.88
2023-09-19T03:42:54.675Z,5.18
2023-09-19T03:44:00.413Z,6.03
2023-09-19T03:45:07.709Z,5.23
2023-09-19T03:46:14.820Z,5.37
2023-09-19T03:47:27.485Z,5.22
2023-09-19T03:48:32.906Z,7.28
2023-09-19T03:49:39.067Z,4.85
2023-09-19T03:50:46.012Z,5.05
2023-09-19T03:51:52.024Z,5.35
2023-09-19T03:53:00.676Z,4.45
2023-09-19T03:54:07.772Z,6.22
2023-09-19T03:55:12.564Z,4.57
2023-09-19T03:56:18.560Z,4.83
2023-09-19T03:57:23.286Z,5.33
2023-09-19T03:58:29.334Z,5.68
2023-09-19T03:59:34.021Z,5.25
2023-09-19T04:00:40.368Z,5.00
2023-09-19T04:01:45.132Z,5.63
2023-09-19T04:02:51.271Z,4.47
2023-09-19T04:03:56.109Z,4.65
2023-09-19T04:05:02.189Z,5.53
2023-09-19T04:06:08.633Z,4.32
2023-09-19T04:07:14.949Z,5.20
2023-09-19T04:08:19.679Z,4.82
2023-09-19T04:09:25.656Z,4.10
2023-09-19T04:10:30.647Z,4.65
2023-09-19T04:11:37.082Z,4.50
2023-09-19T04:12:42.417Z,4.55
2023-09-19T04:13:48.418Z,4.70
2023-09-19T04:14:53.725Z,6.05
2023-09-19T04:15:59.732Z,4.63
2023-09-19T04:17:04.951Z,5.78
2023-09-19T04:18:11.045Z,9.07
2023-09-19T04:19:16.728Z,8.37
2023-09-19T04:20:25.012Z,4.85
2023-09-19T04:21:31.331Z,4.40
2023-09-19T04:22:37.344Z,7.20
2023-09-19T04:23:42.298Z,5.47
2023-09-19T04:24:48.334Z,4.65
2023-09-19T04:25:53.164Z,7.85
2023-09-19T04:26:59.294Z,9.27
2023-09-19T04:28:04.426Z,10.07
2023-09-19T04:29:13.085Z,7.47
2023-09-19T04:30:18.267Z,7.30
2023-09-19T04:31:24.487Z,5.18
2023-09-19T04:32:31.933Z,4.70
2023-09-19T04:33:38.722Z,6.07
2023-09-19T04:34:43.658Z,4.68
2023-09-19T04:35:48.343Z,7.20
2023-09-19T04:36:56.575Z,7.32
2023-09-19T04:38:01.232Z,7.35
2023-09-19T04:39:07.984Z,5.93
2023-09-19T04:40:21.126Z,4.40
2023-09-19T04:41:26.625Z,5.70
2023-09-19T04:42:32.630Z,4.40
2023-09-19T04:43:37.583Z,4.38
2023-09-19T04:44:44.858Z,5.38
2023-09-19T04:45:49.533Z,5.68
2023-09-19T04:46:55.660Z,4.65
2023-09-19T04:48:00.402Z,6.05
2023-09-19T04:49:05.274Z,6.80
2023-09-19T04:50:15.795Z,5.65
2023-09-19T04:51:20.919Z,4.70
2023-09-19T04:52:28.571Z,5.50
2023-09-19T04:53:33.279Z,5.75
2023-09-19T04:54:39.735Z,4.32
2023-09-19T04:55:44.495Z,4.80
2023-09-19T04:56:50.578Z,6.95
2023-09-19T04:57:55.656Z,6.65
2023-09-19T04:59:02.068Z,6.00
2023-09-19T05:00:14.257Z,7.03
2023-09-19T05:01:21.055Z,4.80
2023-09-19T05:02:26.672Z,4.43
2023-09-19T05:03:32.483Z,5.90
2023-09-19T05:04:37.742Z,6.78
2023-09-19T05:05:44.704Z,6.70
2023-09-19T05:06:50.021Z,6.53
2023-09-19T05:07:57.838Z,5.50
2023-09-19T05:09:02.386Z,6.28
2023-09-19T05:10:09.265Z,6.78
2023-09-19T05:11:13.745Z,6.53
2023-09-19T05:12:20.494Z,6.18
2023-09-19T05:13:25.643Z,6.77
2023-09-19T05:14:32.029Z,6.37
2023-09-19T05:15:37.788Z,6.50
2023-09-19T05:16:44.267Z,6.78
2023-09-19T05:17:54.752Z,7.55
2023-09-19T05:19:03.591Z,6.57
2023-09-19T05:20:11.585Z,6.25
2023-09-19T05:21:17.403Z,6.68
2023-09-19T05:22:21.920Z,7.00
2023-09-19T05:23:29.498Z,7.63
2023-09-19T05:24:34.076Z,8.47
2023-09-19T05:25:41.505Z,5.77
2023-09-19T05:26:46.260Z,5.78
2023-09-19T05:27:53.540Z,8.07
2023-09-19T05:28:58.867Z,6.10
2023-09-19T05:30:04.665Z,5.75
2023-09-19T05:31:09.203Z,6.32
2023-09-19T05:32:15.251Z,9.45
2023-09-19T05:33:20.416Z,5.60
2023-09-19T05:34:27.453Z,6.13
2023-09-19T05:35:32.022Z,5.90
2023-09-19T05:36:37.844Z,6.60
2023-09-19T05:37:42.371Z,6.80
2023-09-19T05:38:53.672Z,6.97
2023-09-19T05:39:58.331Z,7.93
2023-09-19T05:41:04.233Z,6.70
2023-09-19T05:42:10.201Z,6.57
2023-09-19T05:43:16.385Z,5.57
2023-09-19T05:44:20.836Z,6.18
2023-09-19T05:45:26.856Z,8.13
2023-09-19T05:46:31.829Z,6.27
2023-09-19T05:47:37.909Z,6.63
2023-09-19T05:48:43.684Z,5.00
2023-09-19T05:49:50.219Z,6.30
2023-09-19T05:50:54.825Z,6.20
2023-09-19T05:52:01.184Z,7.10
2023-09-19T05:53:06.284Z,6.85
2023-09-19T05:54:13.789Z,6.82
2023-09-19T05:55:18.349Z,6.25
2023-09-19T05:56:24.586Z,5.80
2023-09-19T05:57:29.776Z,5.03
2023-09-19T05:58:35.616Z,8.00
2023-09-19T05:59:41.934Z,5.65
2023-09-19T06:00:49.490Z,5.57
2023-09-19T06:01:54.371Z,9.80
2023-09-19T06:03:01.267Z,6.60
2023-09-19T06:04:06.822Z,6.15
2023-09-19T06:05:13.885Z,6.13
2023-09-19T06:06:18.624Z,6.30
2023-09-19T06:07:24.479Z,8.23
2023-09-19T06:08:30.048Z,6.50
2023-09-19T06:09:37.579Z,5.57
2023-09-19T06:10:42.380Z,4.60
2023-09-19T06:11:48.855Z,6.30
2023-09-19T06:12:53.389Z,6.28
2023-09-19T06:13:59.218Z,5.18
2023-09-19T06:15:03.731Z,7.80
2023-09-19T06:16:11.598Z,5.18
2023-09-19T06:17:16.475Z,8.02
2023-09-19T06:18:23.140Z,5.72
2023-09-19T06:19:27.865Z,5.20
2023-09-19T06:20:35.174Z,5.90
2023-09-19T06:21:39.803Z,4.50
2023-09-19T06:22:44.756Z,5.20
2023-09-19T06:23:50.576Z,5.82
2023-09-19T06:24:56.793Z,6.47
2023-09-19T06:26:02.715Z,5.88
2023-09-19T06:27:09.207Z,4.30
2023-09-19T06:28:16.734Z,5.60
2023-09-19T06:29:23.039Z,5.38
2023-09-19T06:30:31.507Z,5.63
2023-09-19T06:31:36.115Z,6.80
2023-09-19T06:32:42.369Z,5.28
2023-09-19T06:33:47.051Z,5.13
2023-09-19T06:34:57.845Z,6.03
2023-09-19T06:36:03.713Z,5.40
2023-09-19T06:37:08.576Z,5.78
2023-09-19T06:38:15.158Z,6.10
2023-09-19T06:39:19.646Z,5.22
2023-09-19T06:40:27.206Z,5.00
2023-09-19T06:41:32.712Z,5.50
2023-09-19T06:42:39.137Z,7.00
2023-09-19T06:43:44.082Z,7.35
2023-09-19T06:44:49.930Z,6.70
2023-09-19T06:45:58.098Z,5.85
2023-09-19T06:47:03.962Z,6.38
2023-09-19T06:48:09.601Z,6.70
2023-09-19T06:49:17.432Z,5.05
2023-09-19T06:50:24.620Z,7.00
2023-09-19T06:51:31.875Z,5.10
2023-09-19T06:52:36.403Z,6.13
2023-09-19T06:53:43.218Z,5.27
2023-09-19T06:54:47.696Z,6.20
2023-09-19T06:55:55.256Z,5.55
2023-09-19T06:57:00.761Z,5.82
2023-09-19T06:58:08.105Z,4.90
2023-09-19T06:59:16.356Z,6.97
2023-09-19T07:00:24.009Z,5.65
2023-09-19T07:01:28.579Z,4.75
2023-09-19T07:02:34.550Z,5.10
2023-09-19T07:03:39.415Z,8.13
2023-09-19T07:04:45.466Z,7.63
2023-09-19T07:05:51.161Z,6.60
2023-09-19T07:06:56.983Z,5.68
2023-09-19T07:08:02.968Z,6.05
2023-09-19T07:09:08.920Z,6.13
2023-09-19T07:10:15.290Z,6.03
2023-09-19T07:11:23.561Z,7.32
2023-09-19T07:12:28.116Z,6.55
2023-09-19T07:13:34.580Z,5.53
2023-09-19T07:14:39.071Z,5.77
2023-09-19T07:15:50.464Z,4.90
2023-09-19T07:16:55.029Z,6.90
2023-09-19T07:18:01.026Z,5.38
2023-09-19T07:19:05.603Z,6.03
2023-09-19T07:20:12.600Z,5.70
2023-09-19T07:21:18.023Z,6.78
2023-09-19T07:22:23.980Z,5.32
2023-09-19T07:23:28.496Z,5.78
2023-09-19T07:24:34.676Z,5.03
2023-09-19T07:25:39.304Z,5.27
2023-09-19T07:26:46.775Z,6.13
2023-09-19T07:27:51.270Z,5.63
2023-09-19T07:28:58.150Z,7.13
2023-09-19T07:30:02.691Z,5.47
2023-09-19T07:31:09.152Z,6.82
2023-09-19T07:32:13.964Z,6.32
2023-09-19T07:33:20.161Z,5.45
2023-09-19T07:34:25.576Z,5.13
2023-09-19T07:35:30.109Z,5.78
2023-09-19T07:36:35.918Z,7.20
2023-09-19T07:37:40.628Z,6.20
2023-09-19T07:38:46.472Z,4.70
2023-09-19T07:39:51.619Z,5.10
2023-09-19T07:40:57.481Z,5.63
2023-09-19T07:42:03.660Z,4.07
2023-09-19T07:43:09.953Z,6.65
2023-09-19T07:44:14.659Z,5.78
2023-09-19T07:45:21.172Z,5.80
2023-09-19T07:46:26.822Z,4.47
2023-09-19T07:47:34.429Z,5.73
2023-09-19T07:48:40.271Z,6.73
2023-09-19T07:49:46.207Z,5.18
2023-09-19T07:50:50.697Z,4.00
2023-09-19T07:51:56.759Z,5.10
2023-09-19T07:53:01.253Z,7.05
2023-09-19T07:54:07.468Z,4.32
2023-09-19T07:55:13.356Z,4.93
2023-09-19T07:56:21.840Z,5.60
2023-09-19T07:57:28.404Z,6.57
2023-09-19T07:58:35.260Z,5.23
2023-09-19T07:59:40.357Z,4.53
2023-09-19T08:00:47.362Z,5.47
2023-09-19T08:01:52.178Z,4.78
2023-09-19T08:03:04.006Z,6.35
2023-09-19T08:04:11.096Z,6.18
2023-09-19T08:05:19.055Z,12.48
2023-09-19T08:06:23.706Z,6.50
2023-09-19T08:07:30.783Z,5.80
2023-09-19T08:08:36.551Z,5.07
2023-09-19T08:09:42.312Z,4.90
2023-09-19T08:10:50.913Z,5.57
2023-09-19T08:11:56.731Z,5.32
2023-09-19T08:13:04.564Z,4.97
2023-09-19T08:14:11.014Z,7.45
2023-09-19T08:15:16.394Z,5.82
2023-09-19T08:16:24.545Z,4.35
2023-09-19T08:17:29.238Z,3.83
2023-09-19T08:18:35.540Z,5.57
2023-09-19T08:19:44.317Z,4.85
2023-09-19T08:20:54.912Z,5.20
2023-09-19T08:22:00.448Z,4.50
2023-09-19T08:23:06.411Z,5.10
2023-09-19T08:24:12.077Z,4.95
2023-09-19T08:25:19.637Z,4.88
2023-09-19T08:26:24.115Z,4.70
2023-09-19T08:27:30.502Z,6.22
2023-09-19T08:28:37.120Z,4.72
2023-09-19T08:29:42.897Z,4.55
2023-09-19T08:30:47.724Z,7.45
2023-09-19T08:31:53.617Z,5.90
2023-09-19T08:33:01.243Z,5.37
2023-09-19T08:34:07.277Z,5.78
2023-09-19T08:35:12.248Z,6.75
2023-09-19T08:36:18.051Z,6.40
2023-09-19T08:37:22.732Z,5.72
2023-09-19T08:38:31.812Z,4.32
2023-09-19T08:39:40.513Z,4.65
2023-09-19T08:40:46.288Z,4.22
2023-09-19T08:41:50.824Z,4.85
2023-09-19T08:42:57.433Z,5.00
2023-09-19T08:44:04.870Z,5.57
2023-09-19T08:45:14.059Z,5.90
2023-09-19T08:46:19.392Z,6.35
2023-09-19T08:47:35.150Z,5.90
2023-09-19T08:48:42.880Z,5.55
2023-09-19T08:49:58.173Z,6.13
2023-09-19T08:51:05.896Z,4.47
2023-09-19T08:52:17.773Z,5.47
2023-09-19T08:53:30.166Z,4.85
2023-09-19T08:54:40.305Z,5.67
2023-09-19T08:55:46.872Z,4.83
2023-09-19T08:56:52.937Z,7.28
2023-09-19T08:58:03.701Z,6.05
2023-09-19T08:59:11.816Z,5.50
2023-09-19T09:00:19.611Z,6.15
2023-09-19T09:01:27.080Z,5.68
2023-09-19T09:02:32.356Z,5.15
2023-09-19T09:03:39.079Z,5.85
2023-09-19T09:04:44.145Z,5.00
2023-09-19T09:05:52.376Z,4.90
2023-09-19T09:06:57.314Z,5.13
2023-09-19T09:08:03.536Z,5.05
2023-09-19T09:09:08.425Z,5.32
2023-09-19T09:10:14.669Z,5.43
2023-09-19T09:11:19.577Z,5.00
2023-09-19T09:12:25.575Z,6.28
2023-09-19T09:13:30.125Z,4.80
2023-09-19T09:14:37.565Z,5.07
2023-09-19T09:15:42.417Z,6.03
2023-09-19T09:16:48.277Z,7.25
2023-09-19T09:17:55.111Z,4.80
2023-09-19T09:19:01.174Z,6.05
2023-09-19T09:20:10.324Z,5.80
2023-09-19T09:21:17.865Z,6.35
2023-09-19T09:22:23.481Z,5.32
2023-09-19T09:23:34.015Z,4.93
2023-09-19T09:24:42.474Z,4.78
2023-09-19T09:25:58.677Z,5.40
2023-09-19T09:27:09.460Z,6.15
2023-09-19T09:28:23.763Z,6.03
2023-09-19T09:29:50.867Z,5.37
2023-09-19T09:30:57.370Z,5.63
2023-09-19T09:32:22.056Z,7.90
2023-09-19T09:33:28.051Z,6.78
2023-09-19T09:34:36.697Z,5.78
2023-09-19T09:35:55.626Z,4.97
2023-09-19T09:37:00.373Z,6.55
2023-09-19T09:38:10.475Z,5.13
2023-09-19T09:39:28.683Z,6.95
2023-09-19T09:40:54.645Z,6.00
2023-09-19T09:42:01.378Z,5.23
2023-09-19T09:43:07.923Z,6.13
2023-09-19T09:44:17.427Z,5.50
2023-09-19T09:45:32.543Z,4.32
2023-09-19T09:46:54.651Z,4.80
2023-09-19T09:47:59.346Z,5.18
2023-09-19T09:49:30.562Z,5.65
2023-09-19T09:50:46.880Z,5.60
2023-09-19T09:52:01.633Z,8.45
2023-09-19T09:53:09.306Z,5.67
2023-09-19T09:54:16.476Z,5.00
2023-09-19T09:55:22.644Z,5.80
2023-09-19T09:56:27.134Z,7.40
2023-09-19T09:57:32.983Z,5.35
2023-09-19T09:58:38.568Z,6.80
2023-09-19T10:00:18.519Z,5.95
2023-09-19T10:01:28.715Z,5.50
2023-09-19T10:02:40.254Z,5.30
2023-09-19T10:03:47.727Z,5.97
2023-09-19T10:05:02.889Z,4.83
2023-09-19T10:06:21.094Z,5.47
2023-09-19T10:07:38.059Z,6.03
2023-09-19T10:08:45.271Z,5.10
2023-09-19T10:09:51.289Z,5.88
2023-09-19T10:10:56.073Z,4.90
2023-09-19T10:12:08.273Z,7.00
2023-09-19T10:13:17.117Z,4.70
2023-09-19T10:14:26.008Z,5.97
2023-09-19T10:15:32.404Z,6.72
2023-09-19T10:16:40.095Z,5.50
2023-09-19T10:17:46.262Z,6.07
2023-09-19T10:18:54.641Z,6.07
2023-09-19T10:20:00.079Z,4.97
2023-09-19T10:21:09.288Z,7.50
2023-09-19T10:22:15.050Z,5.65
2023-09-19T10:23:25.319Z,5.85
2023-09-19T10:24:30.359Z,6.80
2023-09-19T10:25:39.058Z,5.93
2023-09-19T10:26:47.134Z,7.13
2023-09-19T10:27:55.523Z,7.30
2023-09-19T10:29:01.757Z,8.67
2023-09-19T10:30:10.868Z,7.03
2023-09-19T10:31:16.360Z,8.02
2023-09-19T10:32:24.334Z,8.18
2023-09-19T10:33:28.954Z,8.60
2023-09-19T10:34:35.406Z,8.35
2023-09-19T10:35:43.038Z,8.93
2023-09-19T10:36:50.461Z,9.60
2023-09-19T10:37:55.390Z,9.40
2023-09-19T10:39:06.821Z,7.77
2023-09-19T10:40:13.830Z,8.17
2023-09-19T10:41:21.718Z,9.18
2023-09-19T10:42:27.052Z,8.68
2023-09-19T10:43:37.007Z,8.50
2023-09-19T10:44:46.075Z,10.32
2023-09-19T10:45:51.703Z,9.25
2023-09-19T10:46:59.336Z,8.40
2023-09-19T10:48:07.252Z,9.23
2023-09-19T10:49:15.875Z,9.85
2023-09-19T10:50:25.753Z,10.93
2023-09-19T10:51:33.733Z,8.20
2023-09-19T10:52:45.420Z,9.85
2023-09-19T10:53:54.083Z,10.57
2023-09-19T10:55:04.426Z,8.68
2023-09-19T10:56:12.328Z,9.55
2023-09-19T10:57:26.050Z,11.82
2023-09-19T10:58:31.871Z,10.32
2023-09-19T10:59:43.054Z,9.90
2023-09-19T11:00:56.126Z,10.13
2023-09-19T11:02:03.642Z,10.43
2023-09-19T11:03:25.245Z,11.23
2023-09-19T11:04:36.248Z,8.55
2023-09-19T11:05:42.672Z,8.73
2023-09-19T11:07:12.730Z,10.20
2023-09-19T11:08:17.721Z,9.45
2023-09-19T11:09:28.414Z,10.18
2023-09-19T11:10:49.041Z,9.80
2023-09-19T11:11:59.409Z,10.50
2023-09-19T11:13:28.172Z,9.68
2023-09-19T11:14:35.442Z,10.07
2023-09-19T11:16:15.541Z,9.73
2023-09-19T11:17:43.364Z,15.30
2023-09-19T11:19:00.103Z,14.10
2023-09-19T11:20:46.784Z,14.27
2023-09-19T11:21:57.300Z,15.23
2023-09-19T11:23:28.754Z,22.42
2023-09-19T11:24:40.580Z,24.90
2023-09-19T11:25:49.749Z,23.85
2023-09-19T11:26:55.854Z,22.95
2023-09-19T11:28:33.481Z,19.83
2023-09-19T11:29:39.789Z,18.50
2023-09-19T11:30:45.669Z,13.68
2023-09-19T11:31:51.241Z,13.75
2023-09-19T11:33:22.591Z,12.65
2023-09-19T11:34:53.666Z,15.95
2023-09-19T11:36:06.654Z,13.13
2023-09-19T11:38:10.137Z,11.23
2023-09-19T11:39:31.196Z,33.75
2023-09-19T11:40:37.194Z,23.48
2023-09-19T11:41:44.017Z,24.47
2023-09-19T11:42:51.849Z,21.60
2023-09-19T11:43:58.673Z,16.27
2023-09-19T11:45:03.222Z,17.38
2023-09-19T11:46:08.381Z,17.45
2023-09-19T11:47:15.843Z,14.07
2023-09-19T11:48:21.959Z,13.48
2023-09-19T11:49:33.774Z,13.50
2023-09-19T11:50:45.298Z,45.90
2023-09-19T11:51:52.681Z,76.05
2023-09-19T11:52:57.569Z,35.30
2023-09-19T11:54:03.414Z,18.60
2023-09-19T11:55:11.224Z,23.23
2023-09-19T11:56:17.082Z,16.25
2023-09-19T11:57:24.151Z,12.95
2023-09-19T11:58:32.007Z,9.75
2023-09-19T11:59:38.370Z,15.60
2023-09-19T12:00:47.239Z,15.43
2023-09-19T12:02:01.235Z,16.90
2023-09-19T12:03:11.350Z,8.88
2023-09-19T12:04:18.005Z,11.90
2023-09-19T12:05:31.999Z,15.40
2023-09-19T12:06:45.095Z,17.25
2023-09-19T12:07:49.995Z,14.35
2023-09-19T12:09:02.629Z,9.52
2023-09-19T12:10:10.959Z,10.68
2023-09-19T12:11:22.075Z,11.57
2023-09-19T12:12:29.025Z,10.05
2023-09-19T12:13:35.000Z,8.75
2023-09-19T12:14:39.580Z,11.25
2023-09-19T12:15:47.355Z,8.33
2023-09-19T12:16:57.607Z,14.75
2023-09-19T12:18:03.533Z,9.13
2023-09-19T12:19:24.367Z,7.72
2023-09-19T12:20:30.616Z,6.95
2023-09-19T12:21:38.632Z,8.80
2023-09-19T12:22:45.890Z,10.90
2023-09-19T12:24:01.401Z,13.32
2023-09-19T12:25:13.140Z,9.55
2023-09-19T12:26:17.788Z,7.50
2023-09-19T12:27:24.536Z,7.13
2023-09-19T12:28:34.387Z,7.88
2023-09-19T12:30:30.565Z,8.38
2023-09-19T12:31:39.129Z,7.80
2023-09-19T12:32:45.090Z,6.80
2023-09-19T12:33:49.781Z,6.68
2023-09-19T12:34:56.657Z,7.78
2023-09-19T12:36:01.249Z,6.25
2023-09-19T12:37:17.706Z,6.90
2023-09-19T12:38:30.297Z,7.22
2023-09-19T12:39:34.853Z,7.53
2023-09-19T12:40:40.943Z,6.28
2023-09-19T12:41:49.508Z,6.25
2023-09-19T12:42:57.364Z,6.15
2023-09-19T12:44:02.374Z,7.75
2023-09-19T12:45:15.893Z,6.32
2023-09-19T12:46:28.889Z,4.55
2023-09-19T12:47:36.641Z,6.45
2023-09-19T12:48:46.133Z,6.53
2023-09-19T12:50:42.663Z,5.13
2023-09-19T12:51:47.616Z,4.97
2023-09-19T12:53:00.030Z,6.00
2023-09-19T12:54:04.758Z,5.32
2023-09-19T12:55:12.929Z,5.85
2023-09-19T12:56:18.122Z,5.07
2023-09-19T12:57:28.989Z,5.78
2023-09-19T12:58:34.691Z,5.57
2023-09-19T12:59:40.951Z,4.80
2023-09-19T13:00:47.071Z,5.80
2023-09-19T13:02:13.223Z,6.70
2023-09-19T13:03:28.577Z,4.50
2023-09-19T13:04:35.401Z,4.88
2023-09-19T13:05:58.019Z,6.10
2023-09-19T13:07:04.051Z,6.43
2023-09-19T13:08:28.919Z,5.20
2023-09-19T13:09:37.125Z,5.13
2023-09-19T13:11:06.137Z,6.97
2023-09-19T13:12:44.511Z,5.22
2023-09-19T13:13:51.420Z,5.47
2023-09-19T13:15:17.306Z,4.30
2023-09-19T13:16:25.847Z,5.63
2023-09-19T13:17:48.622Z,5.78
2023-09-19T13:18:55.666Z,6.40
2023-09-19T13:20:01.635Z,9.45
2023-09-19T13:21:12.599Z,8.40
2023-09-19T13:22:43.468Z,9.98
2023-09-19T13:23:50.196Z,7.72
2023-09-19T13:24:56.246Z,9.50
2023-09-19T13:26:01.035Z,7.45
2023-09-19T13:27:08.826Z,6.90
2023-09-19T13:28:13.382Z,6.47
2023-09-19T13:29:20.479Z,6.57
2023-09-19T13:30:27.135Z,6.78
2023-09-19T13:31:33.214Z,5.95
2023-09-19T13:32:37.877Z,5.07
2023-09-19T13:33:48.185Z,6.60
2023-09-19T13:34:53.546Z,6.40
2023-09-19T13:36:00.266Z,4.38
2023-09-19T13:37:05.345Z,7.00
2023-09-19T13:38:13.505Z,5.47
2023-09-19T13:39:19.812Z,5.77
2023-09-19T13:40:25.674Z,6.00
2023-09-19T13:41:31.170Z,5.00
2023-09-19T13:42:38.501Z,6.20
2023-09-19T13:43:43.119Z,8.50
2023-09-19T13:44:49.120Z,9.90
2023-09-19T13:45:53.645Z,8.13
2023-09-19T13:46:59.632Z,10.63
2023-09-19T13:48:04.365Z,10.75
2023-09-19T13:49:10.180Z,9.00
2023-09-19T13:50:14.880Z,9.93
2023-09-19T13:51:22.021Z,8.43
2023-09-19T13:52:26.529Z,6.53
2023-09-19T13:53:32.368Z,6.78
2023-09-19T13:54:38.540Z,5.63
2023-09-19T13:55:43.353Z,5.90
2023-09-19T13:56:49.143Z,7.43
2023-09-19T13:57:58.117Z,6.60
2023-09-19T13:59:04.076Z,8.60
2023-09-19T14:00:12.342Z,8.68
2023-09-19T14:01:18.493Z,8.87
2023-09-19T14:02:25.073Z,9.05
2023-09-19T14:03:31.787Z,8.23
2023-09-19T14:04:36.712Z,10.38
2023-09-19T14:05:42.658Z,10.82
2023-09-19T14:06:48.440Z,9.73
2023-09-19T14:07:54.364Z,9.48
2023-09-19T14:08:58.945Z,9.18
2023-09-19T14:10:11.705Z,7.07
2023-09-19T14:11:16.763Z,7.00
2023-09-19T14:12:23.199Z,6.57
2023-09-19T14:13:27.979Z,5.63
2023-09-19T14:14:34.019Z,5.57
2023-09-19T14:15:40.863Z,9.00
2023-09-19T14:16:46.812Z,8.48
2023-09-19T14:17:51.812Z,9.18
2023-09-19T14:18:57.752Z,14.65
2023-09-19T14:20:02.289Z,15.70
2023-09-19T14:21:08.918Z,12.52
2023-09-19T14:22:13.931Z,9.02
2023-09-19T14:23:19.774Z,10.27
2023-09-19T14:24:24.641Z,5.57
2023-09-19T14:25:32.821Z,8.18
2023-09-19T14:26:37.331Z,8.32
2023-09-19T14:27:43.661Z,6.47
2023-09-19T14:28:48.202Z,6.30
2023-09-19T14:29:54.044Z,4.72
2023-09-19T14:30:58.765Z,5.80
2023-09-19T14:32:04.831Z,4.85
2023-09-19T14:33:09.498Z,5.10
2023-09-19T14:34:16.332Z,7.00
2023-09-19T14:35:20.975Z,5.53
2023-09-19T14:36:28.910Z,5.72
2023-09-19T14:37:34.782Z,5.85
2023-09-19T14:38:40.271Z,7.82
2023-09-19T14:39:46.913Z,7.95
2023-09-19T14:41:03.822Z,8.00
2023-09-19T14:42:08.572Z,6.35
2023-09-19T14:43:14.412Z,8.65
2023-09-19T14:44:19.071Z,7.78
2023-09-19T14:45:24.955Z,6.83
2023-09-19T14:46:29.541Z,8.50
2023-09-19T14:47:36.104Z,7.85
2023-09-19T14:48:41.143Z,6.60
2023-09-19T14:49:47.373Z,6.15
2023-09-19T14:50:52.910Z,6.75
2023-09-19T14:51:58.769Z,7.70
2023-09-19T14:53:04.896Z,8.52
2023-09-19T14:54:11.406Z,7.00
2023-09-19T14:55:16.753Z,8.55
2023-09-19T14:56:27.643Z,8.40
2023-09-19T14:57:32.145Z,6.60
2023-09-19T14:58:38.310Z,10.10
2023-09-19T14:59:42.910Z,7.68
2023-09-19T15:00:49.120Z,6.65
2023-09-19T15:01:57.915Z,7.88
2023-09-19T15:03:05.423Z,4.57
2023-09-19T15:04:10.972Z,5.88